sensor_id;sensor_type;location;lat;lon;timestamp;temperature;humidity
37281;DHT22;23169;41.804;12.596;2023-04-24T00:00:23;15.60;1.00
37281;DHT22;23169;41.804;12.596;2023-04-24T00:02:52;15.60;1.00
37281;DHT22;23169;41.804;12.596;2023-04-24T00:05:25;15.60;1.00
37281;DHT22;23169;41.804;12.596;2023-04-24T00:07:53;15.60;1.00
37281;DHT22;23169;41.804;12.596;2023-04-24T00:10:23;15.60;1.00
37281;DHT22;23169;41.804;12.596;2023-04-24T00:12:53;15.60;1.00
37281;DHT22;23169;41.804;12.596;2023-04-24T00:15:21;15.50;1.00
37281;DHT22;23169;41.804;12.596;2023-04-24T00:17:50;15.70;1.00
37281;DHT22;23169;41.804;12.596;2023-04-24T00:20:20;15.50;1.00
37281;DHT22;23169;41.804;12.596;2023-04-24T00:22:51;15.50;1.00
37281;DHT22;23169;41.804;12.596;2023-04-24T00:25:20;15.50;1.00
37281;DHT22;23169;41.804;12.596;2023-04-24T00:27:49;15.50;1.00
37281;DHT22;23169;41.804;12.596;2023-04-24T00:30:17;15.50;1.00
37281;DHT22;23169;41.804;12.596;2023-04-24T00:32:46;15.60;1.00
37281;DHT22;23169;41.804;12.596;2023-04-24T00:35:15;15.50;1.00
37281;DHT22;23169;41.804;12.596;2023-04-24T00:37:43;15.50;1.00
37281;DHT22;23169;41.804;12.596;2023-04-24T00:40:12;15.50;1.00
37281;DHT22;23169;41.804;12.596;2023-04-24T00:42:41;15.10;1.00
37281;DHT22;23169;41.804;12.596;2023-04-24T00:45:12;15.40;1.00
37281;DHT22;23169;41.804;12.596;2023-04-24T00:47:42;15.40;1.00
37281;DHT22;23169;41.804;12.596;2023-04-24T00:50:10;15.40;1.00
37281;DHT22;23169;41.804;12.596;2023-04-24T00:52:42;15.40;1.00
37281;DHT22;23169;41.804;12.596;2023-04-24T00:55:11;15.40;1.00
37281;DHT22;23169;41.804;12.596;2023-04-24T00:57:41;15.40;1.00
37281;DHT22;23169;41.804;12.596;2023-04-24T01:00:16;15.40;1.00
37281;DHT22;23169;41.804;12.596;2023-04-24T01:02:46;15.40;1.00
37281;DHT22;23169;41.804;12.596;2023-04-24T01:05:15;15.40;1.00
37281;DHT22;23169;41.804;12.596;2023-04-24T01:07:47;15.40;1.00
37281;DHT22;23169;41.804;12.596;2023-04-24T01:10:17;15.40;1.00
37281;DHT22;23169;41.804;12.596;2023-04-24T01:12:46;15.40;1.00
37281;DHT22;23169;41.804;12.596;2023-04-24T01:15:17;15.30;1.00
37281;DHT22;23169;41.804;12.596;2023-04-24T01:17:45;15.40;1.00
37281;DHT22;23169;41.804;12.596;2023-04-24T01:20:15;15.40;1.00
37281;DHT22;23169;41.804;12.596;2023-04-24T01:22:47;15.30;1.00
37281;DHT22;23169;41.804;12.596;2023-04-24T01:25:16;15.40;1.00
37281;DHT22;23169;41.804;12.596;2023-04-24T01:27:46;15.40;1.00
37281;DHT22;23169;41.804;12.596;2023-04-24T01:30:15;15.40;1.00
37281;DHT22;23169;41.804;12.596;2023-04-24T01:32:45;15.40;1.00
37281;DHT22;23169;41.804;12.596;2023-04-24T01:35:14;15.30;1.00
37281;DHT22;23169;41.804;12.596;2023-04-24T01:37:43;15.30;1.00
37281;DHT22;23169;41.804;12.596;2023-04-24T01:40:12;15.30;1.00
37281;DHT22;23169;41.804;12.596;2023-04-24T01:42:42;15.30;1.00
37281;DHT22;23169;41.804;12.596;2023-04-24T01:45:11;15.30;1.00
37281;DHT22;23169;41.804;12.596;2023-04-24T01:47:42;15.30;1.00
37281;DHT22;23169;41.804;12.596;2023-04-24T01:50:11;15.30;1.00
37281;DHT22;23169;41.804;12.596;2023-04-24T01:52:41;15.30;1.00
37281;DHT22;23169;41.804;12.596;2023-04-24T01:55:10;15.30;1.00
37281;DHT22;23169;41.804;12.596;2023-04-24T01:57:39;15.30;1.00
37281;DHT22;23169;41.804;12.596;2023-04-24T02:00:12;15.30;1.00
37281;DHT22;23169;41.804;12.596;2023-04-24T02:02:41;15.30;1.00
37281;DHT22;23169;41.804;12.596;2023-04-24T02:05:10;15.30;1.00
37281;DHT22;23169;41.804;12.596;2023-04-24T02:07:39;15.20;1.00
37281;DHT22;23169;41.804;12.596;2023-04-24T02:10:08;15.20;1.00
37281;DHT22;23169;41.804;12.596;2023-04-24T02:12:38;15.20;1.00
37281;DHT22;23169;41.804;12.596;2023-04-24T02:15:06;15.20;1.00
37281;DHT22;23169;41.804;12.596;2023-04-24T02:17:35;15.30;1.00
37281;DHT22;23169;41.804;12.596;2023-04-24T02:20:06;15.30;1.00
37281;DHT22;23169;41.804;12.596;2023-04-24T02:25:05;15.40;1.00
37281;DHT22;23169;41.804;12.596;2023-04-24T02:27:33;15.40;1.00
37281;DHT22;23169;41.804;12.596;2023-04-24T02:30:02;15.40;1.00
37281;DHT22;23169;41.804;12.596;2023-04-24T02:32:32;15.40;1.00
37281;DHT22;23169;41.804;12.596;2023-04-24T02:35:00;15.50;1.00
37281;DHT22;23169;41.804;12.596;2023-04-24T02:37:28;15.50;1.00
37281;DHT22;23169;41.804;12.596;2023-04-24T02:39:57;15.50;1.00
37281;DHT22;23169;41.804;12.596;2023-04-24T02:42:29;15.50;1.00
37281;DHT22;23169;41.804;12.596;2023-04-24T02:44:58;15.50;1.00
37281;DHT22;23169;41.804;12.596;2023-04-24T02:47:27;15.50;1.00
37281;DHT22;23169;41.804;12.596;2023-04-24T02:49:57;15.60;1.00
37281;DHT22;23169;41.804;12.596;2023-04-24T02:52:26;15.60;1.00
37281;DHT22;23169;41.804;12.596;2023-04-24T02:54:55;15.50;1.00
37281;DHT22;23169;41.804;12.596;2023-04-24T02:57:26;15.60;1.00
37281;DHT22;23169;41.804;12.596;2023-04-24T02:59:55;15.60;1.00
37281;DHT22;23169;41.804;12.596;2023-04-24T03:04:52;15.60;1.00
37281;DHT22;23169;41.804;12.596;2023-04-24T03:07:21;15.60;1.00
37281;DHT22;23169;41.804;12.596;2023-04-24T03:09:50;16.10;1.00
37281;DHT22;23169;41.804;12.596;2023-04-24T03:12:18;15.60;1.00
37281;DHT22;23169;41.804;12.596;2023-04-24T03:14:47;15.60;1.00
37281;DHT22;23169;41.804;12.596;2023-04-24T03:17:18;15.60;1.00
37281;DHT22;23169;41.804;12.596;2023-04-24T03:19:46;15.60;1.00
37281;DHT22;23169;41.804;12.596;2023-04-24T03:22:14;15.60;1.00
37281;DHT22;23169;41.804;12.596;2023-04-24T03:24:43;15.20;1.00
37281;DHT22;23169;41.804;12.596;2023-04-24T03:27:12;15.60;1.00
37281;DHT22;23169;41.804;12.596;2023-04-24T03:29:40;14.90;1.00
37281;DHT22;23169;41.804;12.596;2023-04-24T03:32:09;15.60;1.00
37281;DHT22;23169;41.804;12.596;2023-04-24T03:34:37;15.60;1.00
37281;DHT22;23169;41.804;12.596;2023-04-24T03:37:09;15.60;1.00
37281;DHT22;23169;41.804;12.596;2023-04-24T03:39:37;15.60;1.00
37281;DHT22;23169;41.804;12.596;2023-04-24T03:42:06;15.60;1.00
37281;DHT22;23169;41.804;12.596;2023-04-24T03:44:36;15.70;1.00
37281;DHT22;23169;41.804;12.596;2023-04-24T03:47:05;15.60;1.00
37281;DHT22;23169;41.804;12.596;2023-04-24T03:49:33;15.60;1.00
37281;DHT22;23169;41.804;12.596;2023-04-24T03:52:01;15.60;1.00
37281;DHT22;23169;41.804;12.596;2023-04-24T03:54:30;15.60;1.00
37281;DHT22;23169;41.804;12.596;2023-04-24T03:57:00;15.60;1.00
37281;DHT22;23169;41.804;12.596;2023-04-24T03:59:31;15.60;1.00
37281;DHT22;23169;41.804;12.596;2023-04-24T04:02:01;15.60;1.00
37281;DHT22;23169;41.804;12.596;2023-04-24T04:04:32;15.50;1.00
37281;DHT22;23169;41.804;12.596;2023-04-24T04:07:01;15.50;1.00
37281;DHT22;23169;41.804;12.596;2023-04-24T04:09:30;15.40;1.00
37281;DHT22;23169;41.804;12.596;2023-04-24T04:11:59;15.40;1.00
37281;DHT22;23169;41.804;12.596;2023-04-24T04:14:29;15.40;1.00
37281;DHT22;23169;41.804;12.596;2023-04-24T04:16:57;15.40;1.00
37281;DHT22;23169;41.804;12.596;2023-04-24T04:19:27;15.40;1.00
37281;DHT22;23169;41.804;12.596;2023-04-24T04:21:56;15.40;1.00
37281;DHT22;23169;41.804;12.596;2023-04-24T04:24:24;15.40;1.00
37281;DHT22;23169;41.804;12.596;2023-04-24T04:26:54;15.40;1.00
37281;DHT22;23169;41.804;12.596;2023-04-24T04:29:24;15.40;1.00
37281;DHT22;23169;41.804;12.596;2023-04-24T04:31:54;15.40;1.00
37281;DHT22;23169;41.804;12.596;2023-04-24T04:34:25;15.40;1.00
37281;DHT22;23169;41.804;12.596;2023-04-24T04:36:54;15.30;1.00
37281;DHT22;23169;41.804;12.596;2023-04-24T04:39:24;15.30;1.00
37281;DHT22;23169;41.804;12.596;2023-04-24T04:41:56;15.30;1.00
37281;DHT22;23169;41.804;12.596;2023-04-24T04:44:25;15.30;1.00
37281;DHT22;23169;41.804;12.596;2023-04-24T04:46:53;15.30;1.00
37281;DHT22;23169;41.804;12.596;2023-04-24T04:49:24;15.20;1.00
37281;DHT22;23169;41.804;12.596;2023-04-24T04:51:53;15.20;1.00
37281;DHT22;23169;41.804;12.596;2023-04-24T04:54:22;15.20;1.20
37281;DHT22;23169;41.804;12.596;2023-04-24T04:56:52;15.20;2.10
37281;DHT22;23169;41.804;12.596;2023-04-24T04:59:21;15.20;2.00
37281;DHT22;23169;41.804;12.596;2023-04-24T05:01:50;15.30;1.40
37281;DHT22;23169;41.804;12.596;2023-04-24T05:04:18;15.30;1.00
37281;DHT22;23169;41.804;12.596;2023-04-24T05:06:46;15.30;1.00
37281;DHT22;23169;41.804;12.596;2023-04-24T05:09:15;15.30;1.00
37281;DHT22;23169;41.804;12.596;2023-04-24T05:11:44;15.40;1.00
37281;DHT22;23169;41.804;12.596;2023-04-24T05:14:12;15.30;1.00
37281;DHT22;23169;41.804;12.596;2023-04-24T05:16:43;15.30;1.40
37281;DHT22;23169;41.804;12.596;2023-04-24T05:19:12;15.30;2.50
37281;DHT22;23169;41.804;12.596;2023-04-24T05:21:41;15.30;3.10
37281;DHT22;23169;41.804;12.596;2023-04-24T05:24:12;15.40;3.20
37281;DHT22;23169;41.804;12.596;2023-04-24T05:26:41;15.40;3.50
37281;DHT22;23169;41.804;12.596;2023-04-24T05:29:09;15.50;4.00
37281;DHT22;23169;41.804;12.596;2023-04-24T05:31:38;15.60;4.30
37281;DHT22;23169;41.804;12.596;2023-04-24T05:34:06;15.60;3.30
37281;DHT22;23169;41.804;12.596;2023-04-24T05:36:36;15.70;2.50
37281;DHT22;23169;41.804;12.596;2023-04-24T05:39:05;15.50;9.20
37281;DHT22;23169;41.804;12.596;2023-04-24T05:44:03;15.60;1.00
37281;DHT22;23169;41.804;12.596;2023-04-24T05:46:35;15.50;4.70
37281;DHT22;23169;41.804;12.596;2023-04-24T05:49:03;15.50;7.90
37281;DHT22;23169;41.804;12.596;2023-04-24T05:51:32;15.40;11.90
37281;DHT22;23169;41.804;12.596;2023-04-24T05:54:00;15.30;18.40
37281;DHT22;23169;41.804;12.596;2023-04-24T05:56:31;15.20;26.80
37281;DHT22;23169;41.804;12.596;2023-04-24T05:59:04;15.50;46.10
37281;DHT22;23169;41.804;12.596;2023-04-24T06:01:32;15.10;35.70
37281;DHT22;23169;41.804;12.596;2023-04-24T06:04:04;15.60;73.40
37281;DHT22;23169;41.804;12.596;2023-04-24T06:06:32;15.00;62.70
37281;DHT22;23169;41.804;12.596;2023-04-24T06:09:01;15.10;72.80
37281;DHT22;23169;41.804;12.596;2023-04-24T06:11:31;15.10;75.20
37281;DHT22;23169;41.804;12.596;2023-04-24T06:14:00;15.00;74.70
37281;DHT22;23169;41.804;12.596;2023-04-24T06:16:30;15.10;77.40
37281;DHT22;23169;41.804;12.596;2023-04-24T06:19:02;15.10;83.70
37281;DHT22;23169;41.804;12.596;2023-04-24T06:21:30;15.00;83.30
37281;DHT22;23169;41.804;12.596;2023-04-24T06:23:59;15.00;77.80
37281;DHT22;23169;41.804;12.596;2023-04-24T06:26:29;15.00;79.80
37281;DHT22;23169;41.804;12.596;2023-04-24T06:28:58;15.00;82.20
37281;DHT22;23169;41.804;12.596;2023-04-24T06:31:27;15.10;82.70
37281;DHT22;23169;41.804;12.596;2023-04-24T06:33:56;15.10;84.90
37281;DHT22;23169;41.804;12.596;2023-04-24T06:36:24;15.10;84.80
37281;DHT22;23169;41.804;12.596;2023-04-24T06:38:53;15.20;86.50
37281;DHT22;23169;41.804;12.596;2023-04-24T06:41:22;15.20;90.00
37281;DHT22;23169;41.804;12.596;2023-04-24T06:43:51;15.20;90.40
37281;DHT22;23169;41.804;12.596;2023-04-24T06:46:22;15.20;88.80
37281;DHT22;23169;41.804;12.596;2023-04-24T06:48:54;15.20;92.60
37281;DHT22;23169;41.804;12.596;2023-04-24T06:51:27;15.30;92.10
37281;DHT22;23169;41.804;12.596;2023-04-24T06:53:55;15.30;95.40
37281;DHT22;23169;41.804;12.596;2023-04-24T06:56:27;15.30;97.40
37281;DHT22;23169;41.804;12.596;2023-04-24T06:58:56;15.30;99.90
37281;DHT22;23169;41.804;12.596;2023-04-24T07:01:28;15.30;99.90
37281;DHT22;23169;41.804;12.596;2023-04-24T07:04:00;15.30;99.90
37281;DHT22;23169;41.804;12.596;2023-04-24T07:06:29;15.40;99.90
37281;DHT22;23169;41.804;12.596;2023-04-24T07:08:59;15.40;99.90
37281;DHT22;23169;41.804;12.596;2023-04-24T07:11:29;15.40;99.90
37281;DHT22;23169;41.804;12.596;2023-04-24T07:13:57;15.30;99.90
37281;DHT22;23169;41.804;12.596;2023-04-24T07:16:26;15.30;99.90
37281;DHT22;23169;41.804;12.596;2023-04-24T07:18:55;15.30;99.90
37281;DHT22;23169;41.804;12.596;2023-04-24T07:21:23;15.60;99.90
37281;DHT22;23169;41.804;12.596;2023-04-24T07:23:53;15.30;99.90
37281;DHT22;23169;41.804;12.596;2023-04-24T07:26:25;15.40;99.90
37281;DHT22;23169;41.804;12.596;2023-04-24T07:28:55;15.40;99.90
37281;DHT22;23169;41.804;12.596;2023-04-24T07:31:24;15.50;99.90
37281;DHT22;23169;41.804;12.596;2023-04-24T07:33:54;15.50;99.90
37281;DHT22;23169;41.804;12.596;2023-04-24T07:36:27;15.50;99.90
37281;DHT22;23169;41.804;12.596;2023-04-24T07:38:56;15.60;99.90
37281;DHT22;23169;41.804;12.596;2023-04-24T07:41:28;15.70;99.90
37281;DHT22;23169;41.804;12.596;2023-04-24T07:43:57;15.90;99.90
37281;DHT22;23169;41.804;12.596;2023-04-24T07:46:30;16.10;99.90
37281;DHT22;23169;41.804;12.596;2023-04-24T07:48:58;16.20;96.40
37281;DHT22;23169;41.804;12.596;2023-04-24T07:51:32;16.00;97.30
37281;DHT22;23169;41.804;12.596;2023-04-24T07:54:06;16.20;99.90
37281;DHT22;23169;41.804;12.596;2023-04-24T07:56:35;16.40;98.00
37281;DHT22;23169;41.804;12.596;2023-04-24T07:59:06;16.60;81.20
37281;DHT22;23169;41.804;12.596;2023-04-24T08:01:35;17.00;70.20
37281;DHT22;23169;41.804;12.596;2023-04-24T08:04:03;16.90;51.30
37281;DHT22;23169;41.804;12.596;2023-04-24T08:06:33;16.80;36.60
37281;DHT22;23169;41.804;12.596;2023-04-24T08:11:31;16.60;32.50
37281;DHT22;23169;41.804;12.596;2023-04-24T08:14:00;16.70;42.50
37281;DHT22;23169;41.804;12.596;2023-04-24T08:16:30;16.90;42.10
37281;DHT22;23169;41.804;12.596;2023-04-24T08:19:00;17.10;37.30
37281;DHT22;23169;41.804;12.596;2023-04-24T08:21:28;17.10;29.80
37281;DHT22;23169;41.804;12.596;2023-04-24T08:23:57;17.10;30.60
37281;DHT22;23169;41.804;12.596;2023-04-24T08:26:25;16.80;31.60
37281;DHT22;23169;41.804;12.596;2023-04-24T08:28:54;16.70;35.50
37281;DHT22;23169;41.804;12.596;2023-04-24T08:31:22;16.80;33.50
37281;DHT22;23169;41.804;12.596;2023-04-24T08:33:53;16.80;33.80
37281;DHT22;23169;41.804;12.596;2023-04-24T08:38:50;16.90;23.00
37281;DHT22;23169;41.804;12.596;2023-04-24T08:41:19;16.80;27.70
37281;DHT22;23169;41.804;12.596;2023-04-24T08:43:47;16.90;28.60
37281;DHT22;23169;41.804;12.596;2023-04-24T08:46:19;16.90;31.30
37281;DHT22;23169;41.804;12.596;2023-04-24T08:48:49;17.00;28.20
37281;DHT22;23169;41.804;12.596;2023-04-24T08:51:18;16.90;29.00
37281;DHT22;23169;41.804;12.596;2023-04-24T08:53:48;16.90;26.20
37281;DHT22;23169;41.804;12.596;2023-04-24T08:56:18;16.90;25.30
37281;DHT22;23169;41.804;12.596;2023-04-24T08:58:47;17.10;24.30
37281;DHT22;23169;41.804;12.596;2023-04-24T09:01:17;17.30;32.40
37281;DHT22;23169;41.804;12.596;2023-04-24T09:03:51;17.40;20.30
37281;DHT22;23169;41.804;12.596;2023-04-24T09:06:21;17.40;16.20
37281;DHT22;23169;41.804;12.596;2023-04-24T09:08:53;17.30;15.80
37281;DHT22;23169;41.804;12.596;2023-04-24T09:11:24;17.50;15.20
37281;DHT22;23169;41.804;12.596;2023-04-24T09:13:56;17.80;15.90
37281;DHT22;23169;41.804;12.596;2023-04-24T09:16:26;17.70;12.60
37281;DHT22;23169;41.804;12.596;2023-04-24T09:18:55;17.80;10.10
37281;DHT22;23169;41.804;12.596;2023-04-24T09:21:24;17.80;6.80
37281;DHT22;23169;41.804;12.596;2023-04-24T09:24:06;17.90;4.30
37281;DHT22;23169;41.804;12.596;2023-04-24T09:26:36;17.90;3.90
37281;DHT22;23169;41.804;12.596;2023-04-24T09:29:04;17.90;3.40
37281;DHT22;23169;41.804;12.596;2023-04-24T09:34:03;17.80;1.00
37281;DHT22;23169;41.804;12.596;2023-04-24T09:36:38;17.80;4.00
37281;DHT22;23169;41.804;12.596;2023-04-24T09:39:09;17.90;3.90
37281;DHT22;23169;41.804;12.596;2023-04-24T09:41:56;18.00;3.90
37281;DHT22;23169;41.804;12.596;2023-04-24T09:44:34;18.20;1.20
37281;DHT22;23169;41.804;12.596;2023-04-24T09:47:08;18.10;2.00
37281;DHT22;23169;41.804;12.596;2023-04-24T09:52:11;18.00;1.00
37281;DHT22;23169;41.804;12.596;2023-04-24T09:54:40;18.20;2.80
37281;DHT22;23169;41.804;12.596;2023-04-24T09:57:08;18.40;2.20
37281;DHT22;23169;41.804;12.596;2023-04-24T09:59:46;18.30;1.00
37281;DHT22;23169;41.804;12.596;2023-04-24T10:02:19;18.10;1.00
37281;DHT22;23169;41.804;12.596;2023-04-24T10:04:55;18.00;1.00
37281;DHT22;23169;41.804;12.596;2023-04-24T10:07:27;17.70;4.00
37281;DHT22;23169;41.804;12.596;2023-04-24T10:09:56;17.60;3.10
37281;DHT22;23169;41.804;12.596;2023-04-24T10:12:25;17.60;1.80
37281;DHT22;23169;41.804;12.596;2023-04-24T10:14:54;17.60;1.10
37281;DHT22;23169;41.804;12.596;2023-04-24T10:17:24;17.80;1.00
37281;DHT22;23169;41.804;12.596;2023-04-24T10:19:54;18.00;1.10
37281;DHT22;23169;41.804;12.596;2023-04-24T10:22:23;18.00;1.00
37281;DHT22;23169;41.804;12.596;2023-04-24T10:24:52;18.30;1.00
37281;DHT22;23169;41.804;12.596;2023-04-24T10:27:21;18.40;1.00
37281;DHT22;23169;41.804;12.596;2023-04-24T10:29:53;18.30;1.00
37281;DHT22;23169;41.804;12.596;2023-04-24T10:32:21;18.40;1.00
37281;DHT22;23169;41.804;12.596;2023-04-24T10:34:51;18.40;1.00
37281;DHT22;23169;41.804;12.596;2023-04-24T10:39:50;18.20;1.00
37281;DHT22;23169;41.804;12.596;2023-04-24T10:42:19;18.70;1.00
37281;DHT22;23169;41.804;12.596;2023-04-24T10:44:50;18.80;1.00
37281;DHT22;23169;41.804;12.596;2023-04-24T10:47:19;18.70;1.00
37281;DHT22;23169;41.804;12.596;2023-04-24T10:49:50;18.50;1.00
37281;DHT22;23169;41.804;12.596;2023-04-24T10:52:20;18.50;1.00
37281;DHT22;23169;41.804;12.596;2023-04-24T10:54:48;18.40;1.00
37281;DHT22;23169;41.804;12.596;2023-04-24T11:00:12;18.80;1.00
37281;DHT22;23169;41.804;12.596;2023-04-24T11:02:42;18.80;1.00
37281;DHT22;23169;41.804;12.596;2023-04-24T11:05:16;18.70;1.00
37281;DHT22;23169;41.804;12.596;2023-04-24T11:10:47;18.70;1.00
37281;DHT22;23169;41.804;12.596;2023-04-24T11:13:16;18.60;1.00
37281;DHT22;23169;41.804;12.596;2023-04-24T11:16:15;18.80;1.00
37281;DHT22;23169;41.804;12.596;2023-04-24T11:18:52;19.20;1.00
37281;DHT22;23169;41.804;12.596;2023-04-24T11:27:12;19.10;1.00
37281;DHT22;23169;41.804;12.596;2023-04-24T11:35:08;19.10;1.00
37281;DHT22;23169;41.804;12.596;2023-04-24T11:37:41;19.50;1.00
37281;DHT22;23169;41.804;12.596;2023-04-24T11:40:12;19.20;1.00
37281;DHT22;23169;41.804;12.596;2023-04-24T11:42:45;19.00;1.00
37281;DHT22;23169;41.804;12.596;2023-04-24T11:45:16;19.60;1.00
37281;DHT22;23169;41.804;12.596;2023-04-24T11:47:45;20.00;1.00
37281;DHT22;23169;41.804;12.596;2023-04-24T11:50:16;20.20;1.00
37281;DHT22;23169;41.804;12.596;2023-04-24T11:52:49;20.60;1.00
37281;DHT22;23169;41.804;12.596;2023-04-24T11:57:49;20.70;1.00
37281;DHT22;23169;41.804;12.596;2023-04-24T12:02:47;19.80;1.00
37281;DHT22;23169;41.804;12.596;2023-04-24T12:05:26;20.40;1.00
37281;DHT22;23169;41.804;12.596;2023-04-24T12:07:55;20.30;1.00
37281;DHT22;23169;41.804;12.596;2023-04-24T12:10:26;20.00;1.00
37281;DHT22;23169;41.804;12.596;2023-04-24T12:12:56;20.00;1.00
37281;DHT22;23169;41.804;12.596;2023-04-24T12:15:25;20.60;1.00
37281;DHT22;23169;41.804;12.596;2023-04-24T12:17:55;20.90;1.00
37281;DHT22;23169;41.804;12.596;2023-04-24T12:20:26;20.70;1.00
37281;DHT22;23169;41.804;12.596;2023-04-24T12:22:57;20.30;1.00
37281;DHT22;23169;41.804;12.596;2023-04-24T12:25:30;20.10;1.00
37281;DHT22;23169;41.804;12.596;2023-04-24T12:30:35;19.70;1.00
37281;DHT22;23169;41.804;12.596;2023-04-24T12:33:05;19.80;1.00
37281;DHT22;23169;41.804;12.596;2023-04-24T12:35:34;20.60;1.00
37281;DHT22;23169;41.804;12.596;2023-04-24T12:38:10;20.30;1.00
37281;DHT22;23169;41.804;12.596;2023-04-24T12:40:43;20.30;1.00
37281;DHT22;23169;41.804;12.596;2023-04-24T12:43:19;20.30;1.00
37281;DHT22;23169;41.804;12.596;2023-04-24T12:45:48;19.70;1.00
37281;DHT22;23169;41.804;12.596;2023-04-24T12:50:46;19.20;1.00
37281;DHT22;23169;41.804;12.596;2023-04-24T12:53:14;19.10;1.00
37281;DHT22;23169;41.804;12.596;2023-04-24T12:55:44;20.20;1.00
37281;DHT22;23169;41.804;12.596;2023-04-24T12:58:13;20.90;1.00
37281;DHT22;23169;41.804;12.596;2023-04-24T13:00:42;20.80;1.00
37281;DHT22;23169;41.804;12.596;2023-04-24T13:03:12;21.70;1.00
37281;DHT22;23169;41.804;12.596;2023-04-24T13:05:41;22.40;1.00
37281;DHT22;23169;41.804;12.596;2023-04-24T13:08:11;23.00;1.00
37281;DHT22;23169;41.804;12.596;2023-04-24T13:10:41;23.70;1.00
37281;DHT22;23169;41.804;12.596;2023-04-24T13:13:10;22.90;1.00
37281;DHT22;23169;41.804;12.596;2023-04-24T13:15:38;22.70;1.00
37281;DHT22;23169;41.804;12.596;2023-04-24T13:18:07;22.40;1.00
37281;DHT22;23169;41.804;12.596;2023-04-24T13:20:37;22.20;1.00
37281;DHT22;23169;41.804;12.596;2023-04-24T13:23:05;24.20;1.00
37281;DHT22;23169;41.804;12.596;2023-04-24T13:25:35;23.30;1.00
37281;DHT22;23169;41.804;12.596;2023-04-24T13:28:06;21.90;1.00
37281;DHT22;23169;41.804;12.596;2023-04-24T13:30:35;22.50;1.00
37281;DHT22;23169;41.804;12.596;2023-04-24T13:33:04;21.90;1.00
37281;DHT22;23169;41.804;12.596;2023-04-24T13:35:32;22.10;1.00
37281;DHT22;23169;41.804;12.596;2023-04-24T13:38:01;23.40;1.00
37281;DHT22;23169;41.804;12.596;2023-04-24T13:40:34;22.90;1.00
37281;DHT22;23169;41.804;12.596;2023-04-24T13:43:03;22.90;1.00
37281;DHT22;23169;41.804;12.596;2023-04-24T13:45:32;22.60;1.00
37281;DHT22;23169;41.804;12.596;2023-04-24T13:48:02;22.70;1.00
37281;DHT22;23169;41.804;12.596;2023-04-24T13:50:31;23.80;1.00
37281;DHT22;23169;41.804;12.596;2023-04-24T13:52:59;24.10;1.00
37281;DHT22;23169;41.804;12.596;2023-04-24T13:55:30;24.50;1.00
37281;DHT22;23169;41.804;12.596;2023-04-24T13:57:59;24.60;1.00
37281;DHT22;23169;41.804;12.596;2023-04-24T14:02:57;25.50;1.00
37281;DHT22;23169;41.804;12.596;2023-04-24T14:05:25;25.00;1.00
37281;DHT22;23169;41.804;12.596;2023-04-24T14:07:54;24.30;1.00
37281;DHT22;23169;41.804;12.596;2023-04-24T14:10:24;24.30;1.00
37281;DHT22;23169;41.804;12.596;2023-04-24T14:12:54;24.60;1.00
37281;DHT22;23169;41.804;12.596;2023-04-24T14:17:51;24.10;1.00
37281;DHT22;23169;41.804;12.596;2023-04-24T14:20:20;24.90;1.00
37281;DHT22;23169;41.804;12.596;2023-04-24T14:22:49;25.70;1.00
37281;DHT22;23169;41.804;12.596;2023-04-24T14:25:17;25.60;1.00
37281;DHT22;23169;41.804;12.596;2023-04-24T14:27:46;25.60;1.00
37281;DHT22;23169;41.804;12.596;2023-04-24T14:30:15;25.80;1.00
37281;DHT22;23169;41.804;12.596;2023-04-24T14:32:45;25.40;1.00
37281;DHT22;23169;41.804;12.596;2023-04-24T14:35:14;24.60;1.00
37281;DHT22;23169;41.804;12.596;2023-04-24T14:40:13;25.00;1.00
37281;DHT22;23169;41.804;12.596;2023-04-24T14:42:42;25.00;1.00
37281;DHT22;23169;41.804;12.596;2023-04-24T14:45:11;24.70;1.00
37281;DHT22;23169;41.804;12.596;2023-04-24T14:47:39;25.70;1.00
37281;DHT22;23169;41.804;12.596;2023-04-24T14:50:08;25.90;1.00
37281;DHT22;23169;41.804;12.596;2023-04-24T14:52:37;26.70;1.00
37281;DHT22;23169;41.804;12.596;2023-04-24T14:55:06;26.30;1.00
37281;DHT22;23169;41.804;12.596;2023-04-24T14:57:35;25.70;1.00
37281;DHT22;23169;41.804;12.596;2023-04-24T15:00:05;26.30;1.00
37281;DHT22;23169;41.804;12.596;2023-04-24T15:02:37;26.60;1.00
37281;DHT22;23169;41.804;12.596;2023-04-24T15:05:11;26.60;1.00
37281;DHT22;23169;41.804;12.596;2023-04-24T15:07:39;27.00;1.00
37281;DHT22;23169;41.804;12.596;2023-04-24T15:10:10;27.40;1.00
37281;DHT22;23169;41.804;12.596;2023-04-24T15:12:39;27.90;1.00
37281;DHT22;23169;41.804;12.596;2023-04-24T15:15:08;28.20;1.00
37281;DHT22;23169;41.804;12.596;2023-04-24T15:17:37;28.10;1.00
37281;DHT22;23169;41.804;12.596;2023-04-24T15:20:06;27.90;1.00
37281;DHT22;23169;41.804;12.596;2023-04-24T15:22:35;27.90;1.00
37281;DHT22;23169;41.804;12.596;2023-04-24T15:25:04;27.80;1.00
37281;DHT22;23169;41.804;12.596;2023-04-24T15:27:43;26.90;1.00
37281;DHT22;23169;41.804;12.596;2023-04-24T15:30:13;26.80;1.00
37281;DHT22;23169;41.804;12.596;2023-04-24T15:32:42;27.20;1.00
37281;DHT22;23169;41.804;12.596;2023-04-24T15:35:11;27.10;1.00
37281;DHT22;23169;41.804;12.596;2023-04-24T15:37:41;26.20;1.00
37281;DHT22;23169;41.804;12.596;2023-04-24T15:40:11;27.00;1.00
37281;DHT22;23169;41.804;12.596;2023-04-24T15:42:42;27.80;1.00
37281;DHT22;23169;41.804;12.596;2023-04-24T15:45:11;27.40;1.00
37281;DHT22;23169;41.804;12.596;2023-04-24T15:47:40;28.00;1.00
37281;DHT22;23169;41.804;12.596;2023-04-24T15:50:10;28.20;1.00
37281;DHT22;23169;41.804;12.596;2023-04-24T15:52:39;27.80;1.00
37281;DHT22;23169;41.804;12.596;2023-04-24T15:55:08;27.00;1.00
37281;DHT22;23169;41.804;12.596;2023-04-24T15:57:37;26.00;1.00
37281;DHT22;23169;41.804;12.596;2023-04-24T16:00:06;24.90;1.00
37281;DHT22;23169;41.804;12.596;2023-04-24T16:02:35;24.10;1.00
37281;DHT22;23169;41.804;12.596;2023-04-24T16:05:04;23.40;1.00
37281;DHT22;23169;41.804;12.596;2023-04-24T16:07:37;22.90;1.00
37281;DHT22;23169;41.804;12.596;2023-04-24T16:10:06;22.50;1.00
37281;DHT22;23169;41.804;12.596;2023-04-24T16:12:35;22.20;1.00
37281;DHT22;23169;41.804;12.596;2023-04-24T16:15:04;21.50;1.00
37281;DHT22;23169;41.804;12.596;2023-04-24T16:17:33;21.30;1.00
37281;DHT22;23169;41.804;12.596;2023-04-24T16:20:02;20.90;1.00
37281;DHT22;23169;41.804;12.596;2023-04-24T16:22:32;20.70;1.00
37281;DHT22;23169;41.804;12.596;2023-04-24T16:25:01;20.70;1.00
37281;DHT22;23169;41.804;12.596;2023-04-24T16:27:30;20.60;1.00
37281;DHT22;23169;41.804;12.596;2023-04-24T16:29:59;20.50;1.00
37281;DHT22;23169;41.804;12.596;2023-04-24T16:32:29;20.20;1.00
37281;DHT22;23169;41.804;12.596;2023-04-24T16:34:58;20.20;1.00
37281;DHT22;23169;41.804;12.596;2023-04-24T16:37:28;20.20;1.00